Time;durP1;ratioP1;P1;durP2;ratioP2;P2;SDS_P1;SDS_P2;PMS_P1;PMS_P2;Temp;Humidity;BMP_temperature;BMP_pressure;BME280_temperature;BME280_humidity;BME280_pressure;Samples;Min_cycle;Max_cycle;Signal;HPM_P1;HPM_P2
2022/04/25 00:01:03;;;;;;;25.50;22.17;;;8.80;99.90;;;;;;5071704;28;20427;-55
2022/04/25 00:03:29;;;;;;;27.90;22.80;;;8.90;99.90;;;;;;5067722;28;20683;-54
2022/04/25 00:05:56;;;;;;;27.07;22.70;;;8.80;99.90;;;;;;5069889;28;20197;-54
2022/04/25 00:08:21;;;;;;;25.07;20.77;;;8.90;99.90;;;;;;5070997;28;20806;-54
2022/04/25 00:10:47;;;;;;;24.93;19.90;;;8.90;99.90;;;;;;5070583;28;20446;-55
2022/04/25 00:13:14;;;;;;;25.10;20.93;;;8.80;99.90;;;;;;5069633;28;20266;-55
2022/04/25 00:15:40;;;;;;;26.40;20.60;;;8.80;99.90;;;;;;5068934;28;21046;-55
2022/04/25 00:18:06;;;;;;;25.40;20.23;;;8.90;99.90;;;;;;5068601;28;20781;-54
2022/04/25 00:20:31;;;;;;;23.67;19.60;;;8.90;99.90;;;;;;5070523;28;20428;-51
2022/04/25 00:23:00;;;;;;;24.83;21.10;;;8.90;99.90;;;;;;5070045;28;20185;-54
2022/04/25 00:25:26;;;;;;;25.47;20.67;;;8.90;99.90;;;;;;5069922;28;20228;-60
2022/04/25 00:27:51;;;;;;;24.20;19.67;;;8.90;99.90;;;;;;5070928;28;20552;-54
2022/04/25 00:30:17;;;;;;;24.33;20.17;;;8.90;99.90;;;;;;5068362;28;20526;-54
2022/04/25 00:32:42;;;;;;;23.60;19.13;;;8.90;99.90;;;;;;5069388;28;20185;-51
2022/04/25 00:35:08;;;;;;;21.13;18.70;;;8.90;99.90;;;;;;5069294;28;20189;-51
2022/04/25 00:37:34;;;;;;;24.17;19.47;;;8.90;99.90;;;;;;5067660;28;20553;-50
2022/04/25 00:39:59;;;;;;;25.10;19.77;;;9.00;99.90;;;;;;5068246;28;20186;-54
2022/04/25 00:42:26;;;;;;;22.90;19.13;;;9.00;99.90;;;;;;5067350;28;20189;-53
2022/04/25 00:44:51;;;;;;;24.73;20.13;;;9.00;99.90;;;;;;5067071;28;20272;-51
2022/04/25 00:47:18;;;;;;;20.80;17.83;;;9.00;99.90;;;;;;5067759;28;20478;-53
2022/04/25 00:49:43;;;;;;;21.27;18.50;;;9.00;99.90;;;;;;5070853;28;20252;-50
2022/04/25 00:52:09;;;;;;;23.60;19.20;;;9.00;99.90;;;;;;5068707;28;20531;-51
2022/04/25 00:54:35;;;;;;;21.70;18.37;;;9.00;99.90;;;;;;5069842;28;20229;-53
2022/04/25 00:57:02;;;;;;;20.90;17.90;;;9.00;99.90;;;;;;5070120;28;20254;-55
2022/04/25 00:59:28;;;;;;;20.83;18.33;;;9.00;99.90;;;;;;5069535;28;20971;-54
2022/04/25 01:01:54;;;;;;;21.33;18.80;;;9.00;99.90;;;;;;5057173;28;20538;-55
2022/04/25 01:04:20;;;;;;;22.10;17.90;;;9.10;99.90;;;;;;5069818;28;20559;-59
2022/04/25 01:06:48;;;;;;;20.10;17.97;;;9.00;99.90;;;;;;5068598;28;20963;-54
2022/04/25 01:09:13;;;;;;;22.73;18.43;;;9.00;99.90;;;;;;5069018;28;20436;-52
2022/04/25 01:11:39;;;;;;;22.47;17.27;;;9.00;99.90;;;;;;5069617;28;20476;-55
2022/04/25 01:14:16;;;;;;;22.37;18.70;;;9.10;99.90;;;;;;5068051;28;20186;-56
2022/04/25 01:16:43;;;;;;;20.13;16.97;;;9.10;99.90;;;;;;5069152;28;20570;-55
2022/04/25 01:19:09;;;;;;;20.27;17.37;;;9.10;99.90;;;;;;5068517;28;20436;-52
2022/04/25 01:21:40;;;;;;;20.30;16.90;;;9.10;99.90;;;;;;5067202;28;20436;-56
2022/04/25 01:29:36;;;;;;;20.03;17.30;;;9.10;99.90;;;;;;5058213;28;20446;-52
2022/04/25 01:32:02;;;;;;;19.90;16.87;;;9.10;99.90;;;;;;5069639;28;20412;-55
2022/04/25 01:34:28;;;;;;;19.77;17.27;;;9.10;99.90;;;;;;5065226;28;20742;-57
2022/04/25 01:36:54;;;;;;;20.20;18.00;;;9.10;99.90;;;;;;5065438;28;20286;-54
2022/04/25 01:39:19;;;;;;;21.53;18.70;;;9.10;99.90;;;;;;5068065;28;21329;-54
2022/04/25 01:41:45;;;;;;;20.03;16.87;;;9.10;99.90;;;;;;5064659;28;20185;-52
2022/04/25 01:44:10;;;;;;;23.20;17.73;;;9.10;99.90;;;;;;5068276;28;20212;-51
2022/04/25 01:46:39;;;;;;;20.07;17.63;;;9.20;99.90;;;;;;5068586;28;20205;-51
2022/04/25 01:49:04;;;;;;;20.50;18.30;;;9.10;99.90;;;;;;5067671;28;20182;-55
2022/04/25 01:51:32;;;;;;;19.57;17.27;;;9.10;99.90;;;;;;5068328;28;21148;-53
2022/04/25 01:53:57;;;;;;;20.10;17.50;;;9.20;99.90;;;;;;5068717;28;20232;-51
2022/04/25 01:56:23;;;;;;;22.60;17.70;;;9.20;99.90;;;;;;5067904;28;20448;-55
2022/04/25 01:58:49;;;;;;;18.17;16.20;;;9.20;99.90;;;;;;5067170;28;20444;-55
2022/04/25 02:01:14;;;;;;;21.43;17.73;;;9.20;99.90;;;;;;5068688;28;20611;-53
2022/04/25 02:03:41;;;;;;;20.00;16.93;;;9.20;99.90;;;;;;5063709;28;20185;-55
2022/04/25 02:06:06;;;;;;;20.83;17.40;;;9.10;99.90;;;;;;5068232;28;20193;-53
2022/04/25 02:08:32;;;;;;;21.90;17.70;;;9.20;99.90;;;;;;5065843;28;20440;-53
2022/04/25 02:13:42;;;;;;;21.20;18.53;;;9.20;99.90;;;;;;5065349;28;20675;-55
2022/04/25 02:16:08;;;;;;;20.67;18.47;;;9.20;99.90;;;;;;5067396;28;20439;-55
2022/04/25 02:18:35;;;;;;;22.67;18.07;;;9.20;99.90;;;;;;5066846;28;20178;-55
2022/04/25 02:21:00;;;;;;;20.17;17.50;;;9.20;99.90;;;;;;5068300;28;20412;-53
2022/04/25 02:23:26;;;;;;;19.77;17.30;;;9.20;99.90;;;;;;5067425;28;20801;-50
2022/04/25 02:25:51;;;;;;;22.10;17.43;;;9.20;99.90;;;;;;5068844;28;20190;-52
2022/04/25 02:28:17;;;;;;;21.40;17.13;;;9.20;99.90;;;;;;5068089;28;20213;-53
2022/04/25 02:30:43;;;;;;;20.90;17.40;;;9.20;99.90;;;;;;5068259;28;20196;-52
2022/04/25 02:33:08;;;;;;;21.00;16.70;;;9.20;99.90;;;;;;5066189;28;20522;-52
2022/04/25 02:35:34;;;;;;;19.47;16.80;;;9.20;99.90;;;;;;5068915;28;20419;-52
2022/04/25 02:37:59;;;;;;;19.43;17.33;;;9.20;99.90;;;;;;5070696;28;20185;-50
2022/04/25 02:40:25;;;;;;;21.10;17.40;;;9.20;99.90;;;;;;5073058;28;20671;-51
2022/04/25 02:42:50;;;;;;;19.27;17.13;;;9.20;99.90;;;;;;5071223;28;20213;-55
2022/04/25 02:45:16;;;;;;;21.00;17.43;;;9.20;99.90;;;;;;5068631;28;20186;-52
2022/04/25 02:47:42;;;;;;;20.10;16.90;;;9.20;99.90;;;;;;5071135;28;20200;-52
2022/04/25 02:50:08;;;;;;;20.67;17.40;;;9.30;99.90;;;;;;5071509;28;20182;-52
2022/04/25 02:52:34;;;;;;;19.97;17.87;;;9.30;99.90;;;;;;5070861;28;20190;-56
2022/04/25 02:54:59;;;;;;;21.93;17.80;;;9.30;99.90;;;;;;5070573;28;20471;-54
2022/04/25 02:57:25;;;;;;;20.40;17.20;;;9.30;99.90;;;;;;5071921;28;20296;-52
2022/04/25 02:59:50;;;;;;;19.87;17.47;;;9.30;99.90;;;;;;5070430;28;20191;-51
2022/04/25 03:02:17;;;;;;;21.07;18.33;;;9.20;99.90;;;;;;5070692;28;20189;-55
2022/04/25 03:04:42;;;;;;;19.87;17.43;;;9.30;99.90;;;;;;5072216;28;20173;-54
2022/04/25 03:07:08;;;;;;;20.50;17.50;;;9.30;99.90;;;;;;5070436;28;20473;-51
2022/04/25 03:09:33;;;;;;;20.70;17.10;;;9.30;99.90;;;;;;5070809;28;20182;-56
2022/04/25 03:11:59;;;;;;;19.50;17.40;;;9.30;99.90;;;;;;5068520;28;20863;-56
2022/04/25 03:14:26;;;;;;;19.40;17.27;;;9.20;99.90;;;;;;5072185;28;20247;-54
2022/04/25 03:16:52;;;;;;;20.03;17.73;;;9.20;99.90;;;;;;5070346;28;20286;-54
2022/04/25 03:19:18;;;;;;;19.60;17.13;;;9.20;99.90;;;;;;5070786;28;20905;-52
2022/04/25 03:21:44;;;;;;;21.70;18.27;;;9.30;99.90;;;;;;5069218;28;20439;-51
2022/04/25 03:24:09;;;;;;;19.27;17.20;;;9.30;99.90;;;;;;5067934;28;20443;-54
2022/04/25 03:26:37;;;;;;;20.27;17.20;;;9.20;99.90;;;;;;5072088;28;20447;-55
2022/04/25 03:29:02;;;;;;;22.17;17.70;;;9.30;99.90;;;;;;5071108;28;20185;-54
2022/04/25 03:31:28;;;;;;;22.60;19.03;;;9.30;99.90;;;;;;5072156;28;20917;-54
2022/04/25 03:33:53;;;;;;;23.30;19.90;;;9.20;99.90;;;;;;5071093;28;20644;-54
2022/04/25 03:36:19;;;;;;;24.50;20.50;;;9.30;99.90;;;;;;5071093;28;20547;-50
2022/04/25 03:38:44;;;;;;;25.23;20.43;;;9.30;99.90;;;;;;5070162;28;20180;-52
2022/04/25 03:41:10;;;;;;;26.27;21.50;;;9.20;99.90;;;;;;5072053;28;20931;-54
2022/04/25 03:43:36;;;;;;;25.30;20.40;;;9.30;99.90;;;;;;5070445;28;20303;-57
2022/04/25 03:46:01;;;;;;;24.07;19.50;;;9.30;99.90;;;;;;5082564;28;20423;-56
2022/04/25 03:48:27;;;;;;;25.50;20.50;;;9.30;99.90;;;;;;5070498;28;20262;-52
2022/04/25 03:50:53;;;;;;;24.57;20.47;;;9.30;99.90;;;;;;5068482;28;20185;-53
2022/04/25 03:53:18;;;;;;;25.90;21.63;;;9.30;99.90;;;;;;5066954;28;20279;-53
2022/04/25 03:58:28;;;;;;;22.50;19.13;;;9.30;99.90;;;;;;5070442;28;20204;-53
2022/04/25 04:00:54;;;;;;;22.00;19.70;;;9.30;99.90;;;;;;5070553;28;20513;-54
2022/04/25 04:03:20;;;;;;;22.30;19.10;;;9.30;99.90;;;;;;5069803;28;20771;-51
2022/04/25 04:05:47;;;;;;;20.60;18.37;;;9.40;99.90;;;;;;5071372;28;20182;-60
2022/04/25 04:08:13;;;;;;;20.03;17.53;;;9.40;99.90;;;;;;5067982;28;20213;-52
2022/04/25 04:10:39;;;;;;;21.40;19.03;;;9.40;99.90;;;;;;5070934;28;20440;-50
2022/04/25 04:13:05;;;;;;;20.73;18.53;;;9.40;99.90;;;;;;5066646;28;20458;-54
2022/04/25 04:15:31;;;;;;;21.67;18.40;;;9.40;99.90;;;;;;5069960;28;20451;-54
2022/04/25 04:17:58;;;;;;;21.40;18.37;;;9.40;99.90;;;;;;5067827;28;20443;-54
2022/04/25 04:20:23;;;;;;;23.47;20.50;;;9.40;99.90;;;;;;5069883;28;20448;-52
2022/04/25 04:22:49;;;;;;;23.43;19.67;;;9.40;99.90;;;;;;5061445;28;20456;-53
2022/04/25 04:25:14;;;;;;;21.90;19.50;;;9.40;99.90;;;;;;5062689;28;20200;-55
2022/04/25 04:27:42;;;;;;;24.20;19.80;;;9.50;99.90;;;;;;5060710;28;20217;-52
2022/04/25 04:30:10;;;;;;;22.47;18.73;;;9.50;99.90;;;;;;5061338;28;20186;-53
2022/04/25 04:32:38;;;;;;;23.40;18.97;;;9.50;99.90;;;;;;5058353;28;20798;-55
2022/04/25 04:35:09;;;;;;;21.43;18.43;;;9.60;99.90;;;;;;5061118;28;20497;-54
2022/04/25 04:37:36;;;;;;;20.80;17.17;;;9.50;99.90;;;;;;5061253;28;20440;-55
2022/04/25 04:42:47;;;;;;;20.10;16.63;;;9.50;99.90;;;;;;5060377;28;20439;-54
2022/04/25 04:45:13;;;;;;;17.23;15.43;;;9.60;99.90;;;;;;5060096;28;20961;-52
2022/04/25 04:47:39;;;;;;;16.97;15.20;;;9.60;99.90;;;;;;5059453;28;20197;-54
2022/04/25 04:50:08;;;;;;;17.50;14.90;;;9.60;99.90;;;;;;5060404;28;20588;-55
2022/04/25 04:52:34;;;;;;;20.10;16.47;;;9.60;99.90;;;;;;5059683;28;20481;-52
2022/04/25 04:54:59;;;;;;;20.50;16.70;;;9.50;99.90;;;;;;5057760;28;20464;-54
2022/04/25 04:57:25;;;;;;;22.07;17.73;;;9.40;99.90;;;;;;5058283;28;20450;-53
2022/04/25 04:59:50;;;;;;;22.03;17.23;;;9.30;99.90;;;;;;5056338;28;20192;-52
2022/04/25 05:02:17;;;;;;;21.33;18.17;;;9.30;99.90;;;;;;5058300;28;20636;-52
2022/04/25 05:04:44;;;;;;;22.53;17.70;;;9.30;99.90;;;;;;5061423;28;20614;-52
2022/04/25 05:07:09;;;;;;;21.13;17.67;;;9.40;99.90;;;;;;5059328;28;20472;-55
2022/04/25 05:09:35;;;;;;;22.90;18.03;;;9.40;99.90;;;;;;5059581;28;20455;-55
2022/04/25 05:12:01;;;;;;;23.23;19.07;;;9.30;99.90;;;;;;5057419;28;20257;-54
2022/04/25 05:14:26;;;;;;;24.93;19.17;;;9.30;99.90;;;;;;5057444;28;20185;-51
2022/04/25 05:16:52;;;;;;;23.07;19.40;;;9.30;99.90;;;;;;5072262;28;20206;-53
2022/04/25 05:19:17;;;;;;;23.20;18.90;;;9.30;99.90;;;;;;5059554;28;21008;-55
2022/04/25 05:21:43;;;;;;;25.63;20.00;;;9.40;99.90;;;;;;5061242;28;20554;-55
2022/04/25 05:24:09;;;;;;;24.27;19.03;;;9.40;99.90;;;;;;5064447;28;20194;-52
2022/04/25 05:26:34;;;;;;;24.77;20.03;;;9.50;99.90;;;;;;5067830;28;20827;-52
2022/04/25 05:29:00;;;;;;;23.80;19.30;;;9.40;99.90;;;;;;5069780;28;20408;-51
2022/04/25 05:31:25;;;;;;;25.50;19.87;;;9.40;99.90;;;;;;5069038;28;20186;-51
2022/04/25 05:33:51;;;;;;;24.53;19.13;;;9.40;99.90;;;;;;5069739;28;20189;-53
2022/04/25 05:36:17;;;;;;;25.20;19.67;;;9.40;99.90;;;;;;5068809;28;20177;-52
2022/04/25 05:38:42;;;;;;;25.90;19.73;;;9.40;99.90;;;;;;5069758;28;20419;-49
2022/04/25 05:41:10;;;;;;;25.83;20.97;;;9.40;99.90;;;;;;5069626;28;20536;-57
2022/04/25 05:43:39;;;;;;;27.00;21.33;;;9.40;99.90;;;;;;5069533;28;20666;-58
2022/04/25 05:46:05;;;;;;;23.37;19.57;;;9.40;99.90;;;;;;5064180;28;20517;-53
2022/04/25 05:54:00;;;;;;;25.50;20.27;;;9.60;99.90;;;;;;5067666;28;20475;-52
2022/04/25 05:56:26;;;;;;;26.80;20.30;;;9.60;99.90;;;;;;5068316;28;20431;-50
2022/04/25 05:58:52;;;;;;;25.57;21.60;;;9.70;99.90;;;;;;5078452;28;20245;-52
2022/04/25 06:01:17;;;;;;;25.80;21.20;;;9.70;99.90;;;;;;5068658;28;20451;-55
2022/04/25 06:03:43;;;;;;;26.97;19.83;;;9.70;99.90;;;;;;5069023;28;20190;-55
2022/04/25 06:06:09;;;;;;;24.80;21.43;;;9.80;99.90;;;;;;5065522;28;20181;-51
2022/04/25 06:08:35;;;;;;;27.43;21.63;;;9.80;99.90;;;;;;5069171;28;20230;-51
2022/04/25 06:11:01;;;;;;;26.73;21.07;;;9.80;99.90;;;;;;5067612;28;20447;-53
2022/04/25 06:13:26;;;;;;;23.17;19.57;;;9.80;99.90;;;;;;5068994;28;20427;-53
2022/04/25 06:15:52;;;;;;;22.93;19.40;;;9.80;99.90;;;;;;5068303;28;20651;-53
2022/04/25 06:18:18;;;;;;;26.27;19.57;;;9.90;99.90;;;;;;5067752;28;20812;-51
2022/04/25 06:20:43;;;;;;;23.57;18.40;;;9.90;99.90;;;;;;5069079;28;20277;-55
2022/04/25 06:23:09;;;;;;;23.37;19.97;;;10.00;99.90;;;;;;5068490;28;20198;-54
2022/04/25 06:25:37;;;;;;;25.03;20.90;;;10.10;99.90;;;;;;5068879;28;20197;-54
2022/04/25 06:28:03;;;;;;;24.10;20.80;;;10.10;99.90;;;;;;5068446;28;20656;-51
2022/04/25 06:30:29;;;;;;;24.83;19.33;;;10.10;99.90;;;;;;5067096;28;20428;-52
2022/04/25 06:32:57;;;;;;;26.33;19.17;;;10.20;99.90;;;;;;5062396;28;20435;-53
2022/04/25 06:35:23;;;;;;;26.43;19.37;;;10.10;99.90;;;;;;5067168;28;20493;-55
2022/04/25 06:37:49;;;;;;;21.97;19.67;;;10.30;99.90;;;;;;5066998;28;20953;-49
2022/04/25 06:40:15;;;;;;;25.10;19.97;;;10.30;99.90;;;;;;5066142;28;20427;-56
2022/04/25 06:42:41;;;;;;;23.40;19.30;;;10.40;99.90;;;;;;5067673;28;20423;-52
2022/04/25 06:45:07;;;;;;;24.50;18.87;;;10.40;99.90;;;;;;5068329;28;20509;-51
2022/04/25 06:47:32;;;;;;;21.70;18.30;;;10.50;99.90;;;;;;5067760;28;20209;-54
2022/04/25 06:49:58;;;;;;;21.40;17.37;;;10.60;99.90;;;;;;5067190;28;20443;-55
2022/04/25 06:52:23;;;;;;;21.63;17.73;;;10.50;99.90;;;;;;5066113;28;20181;-52
2022/04/25 06:54:50;;;;;;;20.20;17.90;;;10.50;99.90;;;;;;5066995;28;20225;-54
2022/04/25 06:57:16;;;;;;;19.47;17.40;;;10.50;99.90;;;;;;5067505;28;20186;-52
2022/04/25 06:59:43;;;;;;;22.63;18.00;;;10.60;99.90;;;;;;5065738;28;20443;-51
2022/04/25 07:02:10;;;;;;;21.27;16.80;;;10.60;99.90;;;;;;5061049;28;20523;-53
2022/04/25 07:04:36;;;;;;;20.10;17.90;;;10.40;99.90;;;;;;5062932;28;20794;-51
2022/04/25 07:07:02;;;;;;;19.90;17.50;;;10.30;99.90;;;;;;5065114;28;21014;-52
2022/04/25 07:09:27;;;;;;;20.80;17.00;;;10.30;99.90;;;;;;5067012;28;20435;-52
2022/04/25 07:11:53;;;;;;;20.63;17.37;;;10.30;99.90;;;;;;5067832;28;20893;-48
2022/04/25 07:14:21;;;;;;;21.63;18.50;;;10.20;99.90;;;;;;5067094;28;20250;-56
2022/04/25 07:16:52;;;;;;;23.13;17.33;;;10.10;99.90;;;;;;5068161;28;20185;-51
2022/04/25 07:19:19;;;;;;;19.43;16.50;;;10.10;99.90;;;;;;5066998;28;20504;-51
2022/04/25 07:29:58;;;;;;;21.17;17.80;;;10.00;99.90;;;;;;5068331;28;20438;-51
2022/04/25 07:32:24;;;;;;;21.20;17.27;;;10.00;99.90;;;;;;5070564;28;20827;-51
2022/04/25 07:34:50;;;;;;;19.93;16.37;;;10.00;99.90;;;;;;5067120;28;20442;-52
2022/04/25 07:37:18;;;;;;;22.10;17.47;;;9.90;99.90;;;;;;5070812;28;20415;-52
2022/04/25 07:39:45;;;;;;;20.20;17.23;;;10.00;99.90;;;;;;5070781;28;20501;-50
2022/04/25 07:42:11;;;;;;;20.60;16.93;;;10.00;99.90;;;;;;5068878;28;20497;-52
2022/04/25 07:44:38;;;;;;;19.00;16.10;;;10.00;99.90;;;;;;5069883;28;20435;-50
2022/04/25 07:47:05;;;;;;;17.63;15.50;;;10.00;99.90;;;;;;5071343;28;20213;-54
2022/04/25 07:49:30;;;;;;;20.47;15.97;;;10.10;99.90;;;;;;5070293;28;20426;-52
2022/04/25 07:51:56;;;;;;;18.07;15.93;;;10.20;99.90;;;;;;5070349;28;20424;-49
2022/04/25 07:54:22;;;;;;;19.27;16.43;;;10.30;99.90;;;;;;5071209;28;20245;-53
2022/04/25 07:56:48;;;;;;;19.07;17.07;;;10.30;99.90;;;;;;5069690;28;20185;-51
2022/04/25 07:59:14;;;;;;;18.90;16.60;;;10.40;99.90;;;;;;5066644;28;20531;-53
2022/04/25 08:01:39;;;;;;;17.83;15.90;;;10.40;99.90;;;;;;5069939;28;20194;-52
2022/04/25 08:04:05;;;;;;;19.97;17.83;;;10.40;99.90;;;;;;5070643;28;20426;-54
2022/04/25 08:06:31;;;;;;;20.40;18.30;;;10.50;99.90;;;;;;5070895;28;20194;-53
2022/04/25 08:08:57;;;;;;;20.13;17.10;;;10.50;99.90;;;;;;5069150;28;20257;-52
2022/04/25 08:11:23;;;;;;;21.23;16.73;;;10.50;99.90;;;;;;5070650;28;20404;-55
2022/04/25 08:19:20;;;;;;;20.80;16.40;;;10.70;99.90;;;;;;5069642;28;20462;-49
2022/04/25 08:21:46;;;;;;;19.57;16.37;;;10.80;99.90;;;;;;5069997;28;20788;-54
2022/04/25 08:24:12;;;;;;;18.20;16.27;;;10.90;99.90;;;;;;5069188;28;20431;-51
2022/04/25 08:26:38;;;;;;;18.70;15.30;;;11.00;99.90;;;;;;5069686;28;20182;-56
2022/04/25 08:29:04;;;;;;;17.27;15.20;;;11.10;99.90;;;;;;5069672;28;21100;-50
2022/04/25 08:31:31;;;;;;;18.03;14.00;;;10.90;99.90;;;;;;5069170;28;20610;-49
2022/04/25 08:33:57;;;;;;;16.33;14.70;;;10.80;99.90;;;;;;5069147;28;20510;-53
2022/04/25 08:36:22;;;;;;;15.87;13.83;;;10.90;99.90;;;;;;5069143;28;20573;-55
2022/04/25 08:38:48;;;;;;;15.57;13.97;;;10.90;99.90;;;;;;5069279;28;20189;-54
2022/04/25 08:41:23;;;;;;;18.73;14.47;;;11.00;99.90;;;;;;5068985;28;20181;-49
2022/04/25 08:43:52;;;;;;;17.23;15.50;;;11.00;99.90;;;;;;5069528;28;20419;-53
2022/04/25 08:46:21;;;;;;;17.93;16.23;;;11.10;99.90;;;;;;5069057;28;20444;-51
2022/04/25 08:48:47;;;;;;;22.93;20.60;;;11.10;99.90;;;;;;5069038;28;20440;-53
2022/04/25 08:51:15;;;;;;;35.87;32.33;;;11.20;99.90;;;;;;5068995;28;20412;-49
2022/04/25 08:53:42;;;;;;;24.53;22.03;;;11.30;99.90;;;;;;5068504;28;21020;-52
2022/04/25 08:56:09;;;;;;;17.47;15.30;;;11.20;99.90;;;;;;5067527;28;20446;-52
2022/04/25 08:58:41;;;;;;;33.90;30.60;;;11.20;99.90;;;;;;5066836;28;20423;-51
2022/04/25 09:01:10;;;;;;;19.67;16.73;;;11.10;99.90;;;;;;5067774;28;20463;-55
2022/04/25 09:03:36;;;;;;;27.67;25.00;;;11.10;99.90;;;;;;5068966;28;20539;-53
2022/04/25 09:06:03;;;;;;;29.70;26.93;;;11.10;99.90;;;;;;5069220;28;20460;-50
2022/04/25 09:08:28;;;;;;;21.63;19.47;;;11.00;99.90;;;;;;5068746;28;20495;-53
2022/04/25 09:12:09;;;;;;;25.90;23.43;;;11.00;99.90;;;;;;5069107;28;20450;-53
2022/04/25 09:13:44;;;;;;;18.03;16.20;;;11.20;99.90;;;;;;5066338;28;20601;-54
2022/04/25 09:16:12;;;;;;;18.47;16.60;;;11.40;99.90;;;;;;5068863;28;20910;-52
2022/04/25 09:18:38;;;;;;;20.20;18.37;;;11.50;99.90;;;;;;5066652;28;20427;-48
2022/04/25 09:21:05;;;;;;;16.13;14.43;;;11.50;99.90;;;;;;5067735;28;20436;-54
2022/04/25 09:23:31;;;;;;;18.07;16.30;;;11.50;99.90;;;;;;5067919;28;20221;-50
2022/04/25 09:26:15;;;;;;;17.93;16.00;;;11.50;99.90;;;;;;5066561;28;20482;-52
2022/04/25 09:28:55;;;;;;;16.03;14.33;;;11.40;99.90;;;;;;5069059;28;20627;-53
2022/04/25 09:31:22;;;;;;;16.10;14.37;;;11.30;99.90;;;;;;5067945;28;20426;-52
2022/04/25 09:33:48;;;;;;;17.83;15.33;;;11.30;99.90;;;;;;5068596;28;20459;-51
2022/04/25 09:36:14;;;;;;;17.40;15.60;;;11.30;99.90;;;;;;5067767;28;20929;-52
2022/04/25 09:38:41;;;;;;;18.20;16.30;;;11.30;99.90;;;;;;5068355;28;20466;-53
2022/04/25 09:41:12;;;;;;;18.00;15.40;;;11.20;99.90;;;;;;5068689;28;20423;-49
2022/04/25 09:43:40;;;;;;;18.10;15.73;;;11.10;99.90;;;;;;5068507;28;20427;-53
2022/04/25 09:46:11;;;;;;;18.70;16.80;;;11.10;99.90;;;;;;5067510;28;20423;-50
2022/04/25 09:48:39;;;;;;;18.33;16.30;;;11.20;99.90;;;;;;5067914;28;20513;-52
2022/04/25 09:51:11;;;;;;;18.23;16.33;;;11.10;99.90;;;;;;5064279;28;20420;-53
2022/04/25 09:53:54;;;;;;;19.37;16.77;;;11.10;99.90;;;;;;5064691;28;20578;-55
2022/04/25 09:56:25;;;;;;;19.57;17.53;;;11.10;99.90;;;;;;5066789;28;20408;-51
2022/04/25 09:59:06;;;;;;;20.80;18.60;;;11.00;99.90;;;;;;5067475;28;20898;-51
2022/04/25 10:01:35;;;;;;;20.70;18.50;;;10.80;99.90;;;;;;5067167;28;20415;-50
2022/04/25 10:04:02;;;;;;;23.47;19.33;;;10.70;99.90;;;;;;5067632;28;20511;-52
2022/04/25 10:06:35;;;;;;;23.33;19.90;;;10.70;99.90;;;;;;5068115;28;20914;-50
2022/04/25 10:09:06;;;;;;;22.43;19.40;;;10.50;99.90;;;;;;5068715;28;20455;-53
2022/04/25 10:11:40;;;;;;;22.93;20.30;;;10.30;99.90;;;;;;5067000;28;20451;-50
2022/04/25 10:14:07;;;;;;;23.20;19.57;;;10.30;99.90;;;;;;5066124;28;21031;-51
2022/04/25 10:16:34;;;;;;;24.07;18.67;;;10.20;99.90;;;;;;5066132;28;21024;-52
2022/04/25 10:18:59;;;;;;;21.90;18.70;;;10.30;99.90;;;;;;5066887;28;20428;-52
2022/04/25 10:21:29;;;;;;;23.20;20.27;;;10.30;99.90;;;;;;5066576;28;20569;-54
2022/04/25 10:23:57;;;;;;;22.37;20.07;;;10.20;99.90;;;;;;5066632;28;20192;-53
2022/04/25 10:26:30;;;;;;;21.37;19.07;;;10.30;99.90;;;;;;5068054;28;20416;-49
2022/04/25 10:28:59;;;;;;;23.53;20.03;;;10.20;99.90;;;;;;5068337;28;20918;-50
2022/04/25 10:31:45;;;;;;;24.27;19.70;;;10.20;99.90;;;;;;5067976;28;20404;-54
2022/04/25 10:34:14;;;;;;;23.30;20.60;;;10.20;99.90;;;;;;5067249;28;20510;-50
2022/04/25 10:36:39;;;;;;;23.60;18.60;;;10.30;99.90;;;;;;5068319;28;20416;-54
2022/04/25 10:39:20;;;;;;;20.07;17.97;;;10.40;99.90;;;;;;5066534;28;20941;-56
2022/04/25 10:44:47;;;;;;;19.93;17.83;;;10.80;99.90;;;;;;5066886;28;20463;-56
2022/04/25 10:47:18;;;;;;;19.73;17.73;;;10.80;99.90;;;;;;5067900;28;21070;-54
2022/04/25 10:49:52;;;;;;;20.60;18.43;;;10.80;99.90;;;;;;5067526;28;20423;-52
2022/04/25 10:55:11;;;;;;;19.20;17.30;;;11.00;99.90;;;;;;5066971;28;20518;-54
2022/04/25 10:57:36;;;;;;;17.97;16.07;;;11.10;99.90;;;;;;5069324;28;20422;-56
2022/04/25 11:00:24;;;;;;;17.27;15.57;;;11.30;99.90;;;;;;5070552;28;21144;-57
2022/04/25 11:03:09;;;;;;;18.00;16.20;;;11.50;99.90;;;;;;5071854;28;20221;-56
2022/04/25 11:05:39;;;;;;;18.60;16.73;;;11.70;99.90;;;;;;5072211;28;20430;-56
2022/04/25 11:08:19;;;;;;;16.10;14.50;;;11.90;99.90;;;;;;5071809;28;20513;-57
2022/04/25 11:10:52;;;;;;;16.53;14.73;;;12.10;99.90;;;;;;5058050;28;20408;-56
2022/04/25 11:13:18;;;;;;;16.67;15.03;;;12.30;99.90;;;;;;5070224;28;20404;-56
2022/04/25 11:15:43;;;;;;;15.47;13.83;;;12.40;99.90;;;;;;5069912;28;20845;-56
2022/04/25 11:18:23;;;;;;;14.90;13.40;;;12.50;99.90;;;;;;5070754;28;20500;-58
2022/04/25 11:21:05;;;;;;;15.33;13.90;;;12.40;99.90;;;;;;5070410;28;20212;-55
2022/04/25 11:23:45;;;;;;;14.70;13.30;;;12.30;99.90;;;;;;5069921;28;20435;-57
2022/04/25 11:26:23;;;;;;;16.47;14.97;;;12.30;99.90;;;;;;5071011;28;20506;-56
2022/04/25 11:28:55;;;;;;;15.17;13.77;;;12.50;99.90;;;;;;5070512;28;20520;-53
2022/04/25 11:31:27;;;;;;;16.53;14.47;;;12.50;99.90;;;;;;5070897;28;20446;-57
2022/04/25 11:33:55;;;;;;;15.57;14.07;;;12.70;99.90;;;;;;5070724;28;20438;-49
2022/04/25 11:36:22;;;;;;;15.80;14.07;;;13.20;99.90;;;;;;5070630;28;20472;-57
2022/04/25 11:41:35;;;;;;;15.20;13.47;;;13.50;99.90;;;;;;5070960;28;20427;-57
2022/04/25 11:44:01;;;;;;;16.00;14.60;;;13.40;99.90;;;;;;5071385;28;20415;-55
2022/04/25 11:46:28;;;;;;;15.23;13.80;;;13.50;99.90;;;;;;5070606;28;20465;-56
2022/04/25 11:48:55;;;;;;;14.93;13.63;;;13.40;99.90;;;;;;5070233;28;20434;-58
2022/04/25 11:51:40;;;;;;;14.73;13.43;;;13.40;99.90;;;;;;5071044;28;20416;-55
2022/04/25 11:54:10;;;;;;;14.73;13.43;;;13.50;99.90;;;;;;5070279;28;20467;-58
2022/04/25 11:56:40;;;;;;;14.30;13.10;;;13.60;99.90;;;;;;5071187;28;20427;-54
2022/04/25 11:59:17;;;;;;;14.10;12.90;;;13.60;99.90;;;;;;5069974;28;20408;-57
2022/04/25 12:01:48;;;;;;;13.63;12.43;;;13.50;99.90;;;;;;5063045;28;20419;-55
2022/04/25 12:04:27;;;;;;;14.23;12.90;;;13.30;99.90;;;;;;5070889;28;20503;-56
2022/04/25 12:06:54;;;;;;;13.03;11.83;;;13.20;99.90;;;;;;5064002;28;20486;-58
2022/04/25 12:17:48;;;;;;;12.60;11.50;;;13.30;99.90;;;;;;5069805;28;20438;-58
2022/04/25 12:20:16;;;;;;;12.70;11.60;;;13.30;99.90;;;;;;5068428;28;20466;-57
2022/04/25 12:22:57;;;;;;;12.77;11.50;;;13.30;99.90;;;;;;5070573;28;20422;-58
2022/04/25 12:25:25;;;;;;;12.37;11.27;;;13.40;99.90;;;;;;5069763;28;20426;-54
2022/04/25 12:28:00;;;;;;;12.40;11.40;;;13.30;99.90;;;;;;5070424;28;20513;-58
2022/04/25 12:30:28;;;;;;;11.83;10.73;;;13.10;99.90;;;;;;5067629;28;20766;-59
2022/04/25 12:33:11;;;;;;;12.87;11.60;;;13.00;99.90;;;;;;5049590;28;20543;-58
2022/04/25 12:35:38;;;;;;;13.67;11.37;;;13.00;99.90;;;;;;5067370;28;20420;-57
2022/04/25 12:38:07;;;;;;;13.90;12.00;;;12.90;99.90;;;;;;5070328;28;20435;-58
2022/04/25 12:40:52;;;;;;;13.00;11.77;;;12.70;99.90;;;;;;5066067;28;20450;-55
2022/04/25 12:43:35;;;;;;;11.47;10.27;;;12.60;99.90;;;;;;5061701;28;20808;-51
2022/04/25 12:46:00;;;;;;;12.10;10.90;;;12.50;99.90;;;;;;5067013;28;20451;-50
2022/04/25 12:48:26;;;;;;;12.70;11.50;;;12.70;99.90;;;;;;5067945;28;20463;-55
2022/04/25 12:50:52;;;;;;;11.97;10.87;;;13.00;99.90;;;;;;5069952;28;20334;-56
2022/04/25 12:53:38;;;;;;;12.70;11.57;;;13.30;99.90;;;;;;5069134;28;20547;-51
2022/04/25 12:56:03;;;;;;;10.73;9.83;;;13.30;99.90;;;;;;5056544;28;20181;-56
2022/04/25 12:58:33;;;;;;;11.50;10.50;;;13.30;99.90;;;;;;5067098;28;20435;-52
2022/04/25 13:00:59;;;;;;;11.87;10.77;;;13.50;99.90;;;;;;5069583;28;20225;-53
2022/04/25 13:03:26;;;;;;;10.73;9.77;;;13.50;99.90;;;;;;5069666;28;20444;-53
2022/04/25 13:05:53;;;;;;;11.17;10.00;;;13.50;99.90;;;;;;5068892;28;20432;-53
2022/04/25 13:08:19;;;;;;;11.90;10.57;;;13.50;99.90;;;;;;5068993;28;20471;-53
2022/04/25 13:10:44;;;;;;;12.20;11.13;;;13.40;99.90;;;;;;5061802;28;20447;-51
2022/04/25 13:13:10;;;;;;;10.93;9.93;;;13.30;99.90;;;;;;5069401;28;20427;-50
2022/04/25 13:15:38;;;;;;;12.73;11.53;;;13.10;99.90;;;;;;5067440;28;20706;-52
2022/04/25 13:18:04;;;;;;;13.37;11.93;;;13.00;99.90;;;;;;5069433;28;20435;-52
2022/04/25 13:20:31;;;;;;;13.07;11.87;;;13.00;99.90;;;;;;5067370;28;20428;-50
2022/04/25 13:22:59;;;;;;;13.57;12.27;;;12.90;99.90;;;;;;5068654;28;20447;-49